LGL618 LEPA-ELLX
Flight info
| Callsign | LGL618 |
|---|---|
| Flight time | 1h 42m |
| Altitude | 36000 |
| Route | MEROS N853 LUMAS DCT MAXIR DCT LUSOL DCT BODRU DCT OKTET DCT IRMAR DCT KINES DCT VANAS DCT MOBLO DCT UBIMA DCT GILIR DCT PENDU DCT IXILU DCT EPL G21 GIVOR |
| Aircraft | B738/M-SDE2E3FGHIRWXY/LB1 |
Departure
| Time | 2026-05-05 18:05 |
|---|---|
| Airport | Palma de Mallorca Airport (LEPA) |
Arrival
| Time | 2026-05-05 19:47 |
|---|---|
| Airport | Luxembourg-Findel International Airport (ELLX) |
| Time | Latitude | Longitude | Altitude | Speed | Heading |
|---|---|---|---|---|---|
| 2026-05-05 17:38 | 39.54757 | 2.73641 | 29 ft | 0 kts | 58° |
| 2026-05-05 17:50 | 39.54750 | 2.73627 | 29 ft | 4 kts | 62° |
| 2026-05-05 17:50 | 39.54740 | 2.73595 | 29 ft | 4 kts | 79° |
| 2026-05-05 17:51 | 39.54740 | 2.73563 | 29 ft | 4 kts | 118° |
| 2026-05-05 17:51 | 39.54748 | 2.73549 | 29 ft | 0 kts | 148° |
| 2026-05-05 17:54 | 39.54746 | 2.73550 | 29 ft | 1 kts | 148° |
| 2026-05-05 17:54 | 39.54735 | 2.73559 | 29 ft | 3 kts | 148° |
| 2026-05-05 17:54 | 39.54714 | 2.73576 | 29 ft | 4 kts | 148° |
| 2026-05-05 17:54 | 39.54693 | 2.73592 | 29 ft | 3 kts | 148° |
| 2026-05-05 17:55 | 39.54672 | 2.73609 | 29 ft | 3 kts | 148° |
| 2026-05-05 17:55 | 39.54657 | 2.73633 | 29 ft | 5 kts | 101° |
| 2026-05-05 17:55 | 39.54664 | 2.73676 | 29 ft | 5 kts | 66° |
| 2026-05-05 17:55 | 39.54681 | 2.73715 | 29 ft | 5 kts | 58° |
| 2026-05-05 17:56 | 39.54706 | 2.73767 | 29 ft | 8 kts | 58° |
| 2026-05-05 17:56 | 39.54737 | 2.73832 | 29 ft | 9 kts | 57° |
| 2026-05-05 17:56 | 39.54768 | 2.73898 | 29 ft | 8 kts | 58° |
| 2026-05-05 17:56 | 39.54798 | 2.73961 | 29 ft | 8 kts | 59° |
| 2026-05-05 17:57 | 39.54851 | 2.73998 | 29 ft | 9 kts | 342° |
| 2026-05-05 17:57 | 39.54889 | 2.73971 | 29 ft | 0 kts | 328° |
| 2026-05-05 17:57 | 39.54894 | 2.73966 | 29 ft | 5 kts | 328° |
| 2026-05-05 17:57 | 39.54939 | 2.73982 | 29 ft | 10 kts | 55° |
| 2026-05-05 17:58 | 39.54994 | 2.73995 | 29 ft | 10 kts | 329° |
| 2026-05-05 17:58 | 39.55059 | 2.73946 | 29 ft | 11 kts | 328° |
| 2026-05-05 17:58 | 39.55132 | 2.73887 | 29 ft | 15 kts | 328° |
| 2026-05-05 17:58 | 39.55235 | 2.73805 | 29 ft | 18 kts | 329° |
| 2026-05-05 17:59 | 39.55339 | 2.73725 | 29 ft | 17 kts | 331° |
| 2026-05-05 17:59 | 39.55438 | 2.73646 | 29 ft | 16 kts | 328° |
| 2026-05-05 17:59 | 39.55535 | 2.73570 | 29 ft | 16 kts | 329° |
| 2026-05-05 17:59 | 39.55628 | 2.73500 | 29 ft | 15 kts | 340° |
| 2026-05-05 18:00 | 39.55685 | 2.73562 | 29 ft | 13 kts | 58° |
| 2026-05-05 18:00 | 39.55741 | 2.73680 | 29 ft | 20 kts | 59° |
| 2026-05-05 18:00 | 39.55832 | 2.73872 | 29 ft | 28 kts | 58° |
| 2026-05-05 18:00 | 39.55930 | 2.74078 | 29 ft | 26 kts | 59° |
| 2026-05-05 18:01 | 39.56021 | 2.74272 | 29 ft | 24 kts | 58° |
| 2026-05-05 18:01 | 39.56083 | 2.74404 | 29 ft | 10 kts | 59° |
| 2026-05-05 18:01 | 39.56131 | 2.74453 | 29 ft | 8 kts | 31° |
| 2026-05-05 18:01 | 39.56139 | 2.74457 | 29 ft | 0 kts | 8° |
| 2026-05-05 18:02 | 39.56141 | 2.74456 | 29 ft | 1 kts | 359° |
| 2026-05-05 18:02 | 39.56185 | 2.74439 | 29 ft | 12 kts | 331° |
| 2026-05-05 18:02 | 39.56256 | 2.74346 | 29 ft | 16 kts | 276° |
| 2026-05-05 18:03 | 39.56226 | 2.74258 | 29 ft | 0 kts | 238° |
| 2026-05-05 18:04 | 39.56213 | 2.74230 | 29 ft | 10 kts | 238° |
| 2026-05-05 18:05 | 39.56041 | 2.73865 | 29 ft | 94 kts | 238° |
| 2026-05-05 18:05 | 39.55556 | 2.72838 | 160 ft | 162 kts | 238° |
| 2026-05-05 18:05 | 39.54927 | 2.71537 | 974 ft | 185 kts | 237° |
| 2026-05-05 18:05 | 39.54214 | 2.70085 | 2017 ft | 196 kts | 239° |
| 2026-05-05 18:06 | 39.53481 | 2.68532 | 2882 ft | 213 kts | 241° |
| 2026-05-05 18:06 | 39.53224 | 2.67965 | 3154 ft | 218 kts | 242° |
| 2026-05-05 18:06 | 39.51782 | 2.65020 | 4298 ft | 242 kts | 237° |
| 2026-05-05 18:06 | 39.50834 | 2.63277 | 4261 ft | 232 kts | 233° |
| 2026-05-05 18:07 | 39.49545 | 2.62052 | 4243 ft | 235 kts | 202° |
| 2026-05-05 18:07 | 39.47893 | 2.61909 | 4270 ft | 249 kts | 171° |
| 2026-05-05 18:07 | 39.46283 | 2.62983 | 4573 ft | 276 kts | 139° |
| 2026-05-05 18:07 | 39.45209 | 2.65044 | 5368 ft | 287 kts | 111° |
| 2026-05-05 18:08 | 39.44842 | 2.67604 | 6292 ft | 291 kts | 95° |
| 2026-05-05 18:08 | 39.44752 | 2.70242 | 7158 ft | 296 kts | 93° |
| 2026-05-05 18:08 | 39.44716 | 2.72931 | 7981 ft | 302 kts | 92° |
| 2026-05-05 18:08 | 39.44695 | 2.75677 | 8596 ft | 308 kts | 92° |
| 2026-05-05 18:09 | 39.44680 | 2.78482 | 9186 ft | 315 kts | 92° |
| 2026-05-05 18:09 | 39.44676 | 2.81309 | 10137 ft | 315 kts | 92° |
| 2026-05-05 18:09 | 39.44680 | 2.84220 | 10577 ft | 335 kts | 92° |
| 2026-05-05 18:09 | 39.45057 | 2.87292 | 10903 ft | 357 kts | 70° |
| 2026-05-05 18:10 | 39.46327 | 2.90080 | 11568 ft | 364 kts | 49° |
| 2026-05-05 18:10 | 39.48077 | 2.92472 | 12350 ft | 369 kts | 43° |
| 2026-05-05 18:10 | 39.50014 | 2.94684 | 13092 ft | 373 kts | 33° |
| 2026-05-05 18:10 | 39.52224 | 2.96470 | 13826 ft | 377 kts | 27° |
| 2026-05-05 18:11 | 39.53736 | 2.97594 | 14278 ft | 380 kts | 26° |
| 2026-05-05 18:11 | 39.56054 | 2.99278 | 14983 ft | 384 kts | 26° |
| 2026-05-05 18:11 | 39.59169 | 3.01533 | 15921 ft | 389 kts | 25° |
| 2026-05-05 18:11 | 39.60771 | 3.02699 | 16400 ft | 392 kts | 25° |
| 2026-05-05 18:12 | 39.63945 | 3.05027 | 17303 ft | 399 kts | 25° |
| 2026-05-05 18:12 | 39.65579 | 3.06233 | 17760 ft | 401 kts | 26° |
| 2026-05-05 18:12 | 39.67974 | 3.08008 | 18464 ft | 403 kts | 26° |
| 2026-05-05 18:12 | 39.70424 | 3.09831 | 19051 ft | 407 kts | 26° |
| 2026-05-05 18:13 | 39.72895 | 3.11674 | 19621 ft | 412 kts | 26° |
| 2026-05-05 18:13 | 39.75392 | 3.13538 | 20194 ft | 416 kts | 26° |
| 2026-05-05 18:13 | 39.77914 | 3.15425 | 20784 ft | 421 kts | 25° |
| 2026-05-05 18:13 | 39.80467 | 3.17334 | 21332 ft | 425 kts | 25° |
| 2026-05-05 18:14 | 39.83038 | 3.19261 | 21917 ft | 428 kts | 25° |
| 2026-05-05 18:14 | 39.85636 | 3.21209 | 22492 ft | 432 kts | 25° |
| 2026-05-05 18:14 | 39.88263 | 3.23181 | 23040 ft | 436 kts | 25° |
| 2026-05-05 18:14 | 39.90904 | 3.25165 | 23559 ft | 440 kts | 25° |
| 2026-05-05 18:15 | 39.93532 | 3.27140 | 23996 ft | 443 kts | 25° |
| 2026-05-05 18:15 | 39.96215 | 3.29159 | 24431 ft | 447 kts | 25° |
| 2026-05-05 18:15 | 39.98922 | 3.31199 | 24871 ft | 451 kts | 25° |
| 2026-05-05 18:15 | 40.01662 | 3.33263 | 25239 ft | 456 kts | 25° |
| 2026-05-05 18:16 | 40.04428 | 3.35350 | 25652 ft | 460 kts | 25° |
| 2026-05-05 18:16 | 40.07206 | 3.37448 | 26078 ft | 463 kts | 25° |
| 2026-05-05 18:16 | 40.10011 | 3.39570 | 26485 ft | 467 kts | 25° |
| 2026-05-05 18:16 | 40.12833 | 3.41705 | 26872 ft | 470 kts | 25° |
| 2026-05-05 18:17 | 40.15673 | 3.43857 | 27264 ft | 474 kts | 25° |
| 2026-05-05 18:17 | 40.18536 | 3.46028 | 27645 ft | 477 kts | 25° |
| 2026-05-05 18:17 | 40.21423 | 3.48219 | 28021 ft | 482 kts | 25° |
| 2026-05-05 18:17 | 40.24316 | 3.50414 | 28205 ft | 490 kts | 25° |
| 2026-05-05 18:18 | 40.27277 | 3.52665 | 28561 ft | 493 kts | 26° |
| 2026-05-05 18:18 | 40.30244 | 3.54926 | 29004 ft | 494 kts | 26° |
| 2026-05-05 18:18 | 40.33224 | 3.57199 | 29385 ft | 497 kts | 26° |
| 2026-05-05 18:18 | 40.36230 | 3.59493 | 29708 ft | 501 kts | 26° |
| 2026-05-05 18:19 | 40.39249 | 3.61798 | 30010 ft | 504 kts | 26° |
| 2026-05-05 18:19 | 40.42289 | 3.64122 | 30351 ft | 507 kts | 26° |
| 2026-05-05 18:19 | 40.45354 | 3.66468 | 30513 ft | 513 kts | 26° |
| 2026-05-05 18:19 | 40.48450 | 3.68838 | 30759 ft | 516 kts | 26° |
| 2026-05-05 18:20 | 40.51555 | 3.71221 | 31082 ft | 517 kts | 26° |
| 2026-05-05 18:20 | 40.54629 | 3.73582 | 31403 ft | 518 kts | 26° |
| 2026-05-05 18:20 | 40.57750 | 3.75982 | 31686 ft | 520 kts | 26° |
| 2026-05-05 18:20 | 40.60877 | 3.78389 | 31949 ft | 522 kts | 26° |
| 2026-05-05 18:21 | 40.64016 | 3.80807 | 32202 ft | 523 kts | 26° |
| 2026-05-05 18:21 | 40.67158 | 3.83230 | 32576 ft | 522 kts | 27° |
| 2026-05-05 18:21 | 40.70285 | 3.85646 | 33013 ft | 519 kts | 27° |
| 2026-05-05 18:21 | 40.73396 | 3.88052 | 33389 ft | 518 kts | 27° |
| 2026-05-05 18:22 | 40.76512 | 3.90463 | 33706 ft | 519 kts | 27° |
| 2026-05-05 18:22 | 40.79623 | 3.92872 | 34004 ft | 519 kts | 27° |
| 2026-05-05 18:22 | 40.82692 | 3.95251 | 34331 ft | 517 kts | 27° |
| 2026-05-05 18:22 | 40.85787 | 3.97654 | 34705 ft | 515 kts | 27° |
| 2026-05-05 18:23 | 40.88875 | 4.00054 | 34991 ft | 514 kts | 26° |
| 2026-05-05 18:23 | 40.91958 | 4.02452 | 35283 ft | 513 kts | 26° |
| 2026-05-05 18:23 | 40.95040 | 4.04852 | 35613 ft | 511 kts | 26° |
| 2026-05-05 18:23 | 40.98106 | 4.07243 | 35958 ft | 509 kts | 26° |
| 2026-05-05 18:24 | 41.01114 | 4.09591 | 36279 ft | 508 kts | 26° |
| 2026-05-05 18:24 | 41.04156 | 4.11968 | 36564 ft | 506 kts | 26° |
| 2026-05-05 18:24 | 41.07186 | 4.14337 | 36878 ft | 505 kts | 26° |
| 2026-05-05 18:24 | 41.10221 | 4.16714 | 37179 ft | 504 kts | 26° |
| 2026-05-05 18:25 | 41.13242 | 4.19082 | 37510 ft | 502 kts | 26° |
| 2026-05-05 18:25 | 41.15226 | 4.20638 | 37668 ft | 500 kts | 26° |
| 2026-05-05 18:25 | 41.19202 | 4.23760 | 37990 ft | 500 kts | 26° |
| 2026-05-05 18:25 | 41.22188 | 4.26108 | 38278 ft | 498 kts | 26° |
| 2026-05-05 18:26 | 41.25165 | 4.28453 | 38558 ft | 496 kts | 26° |
| 2026-05-05 18:26 | 41.28132 | 4.30791 | 38770 ft | 495 kts | 26° |
| 2026-05-05 18:26 | 41.31094 | 4.33127 | 38892 ft | 496 kts | 26° |
| 2026-05-05 18:27 | 41.37065 | 4.37842 | 38877 ft | 499 kts | 26° |
| 2026-05-05 18:27 | 41.43010 | 4.42552 | 38876 ft | 495 kts | 26° |
| 2026-05-05 18:28 | 41.51852 | 4.49574 | 38878 ft | 492 kts | 26° |
| 2026-05-05 18:28 | 41.57717 | 4.54244 | 38878 ft | 489 kts | 26° |
| 2026-05-05 18:29 | 41.63553 | 4.58899 | 38866 ft | 488 kts | 26° |
| 2026-05-05 18:29 | 41.69355 | 4.63538 | 38917 ft | 488 kts | 26° |
| 2026-05-05 18:30 | 41.75195 | 4.68215 | 38889 ft | 489 kts | 26° |
| 2026-05-05 18:30 | 41.81050 | 4.72910 | 38891 ft | 491 kts | 26° |
| 2026-05-05 18:31 | 41.86922 | 4.77627 | 38889 ft | 493 kts | 26° |
| 2026-05-05 18:31 | 41.92780 | 4.82345 | 38893 ft | 495 kts | 27° |
| 2026-05-05 18:32 | 41.98685 | 4.87112 | 38893 ft | 496 kts | 27° |
| 2026-05-05 18:32 | 42.04622 | 4.91916 | 38889 ft | 497 kts | 27° |
| 2026-05-05 18:33 | 42.10562 | 4.96733 | 38891 ft | 498 kts | 27° |
| 2026-05-05 18:33 | 42.16498 | 5.01559 | 38886 ft | 498 kts | 27° |
| 2026-05-05 18:34 | 42.22402 | 5.06368 | 38885 ft | 498 kts | 27° |
| 2026-05-05 18:34 | 42.28338 | 5.11213 | 38887 ft | 497 kts | 27° |
| 2026-05-05 18:35 | 42.34253 | 5.16053 | 38895 ft | 496 kts | 27° |
| 2026-05-05 18:35 | 42.40117 | 5.20861 | 38885 ft | 495 kts | 27° |
| 2026-05-05 18:36 | 42.46011 | 5.25704 | 38887 ft | 494 kts | 27° |
| 2026-05-05 18:36 | 42.51884 | 5.30541 | 38907 ft | 494 kts | 28° |
| 2026-05-05 18:37 | 42.57768 | 5.35398 | 38883 ft | 493 kts | 28° |
| 2026-05-05 18:37 | 42.63619 | 5.40239 | 38889 ft | 492 kts | 28° |
| 2026-05-05 18:38 | 42.69417 | 5.45045 | 38896 ft | 491 kts | 28° |
| 2026-05-05 18:38 | 42.75253 | 5.49895 | 38901 ft | 491 kts | 28° |
| 2026-05-05 18:39 | 42.81081 | 5.54748 | 38901 ft | 491 kts | 28° |
| 2026-05-05 18:39 | 42.86904 | 5.59608 | 38903 ft | 491 kts | 28° |
| 2026-05-05 18:40 | 42.92742 | 5.64492 | 38914 ft | 491 kts | 28° |
| 2026-05-05 18:40 | 42.98567 | 5.69376 | 38910 ft | 492 kts | 28° |
| 2026-05-05 18:41 | 43.04402 | 5.74280 | 38908 ft | 491 kts | 28° |
| 2026-05-05 18:41 | 43.10119 | 5.79095 | 38939 ft | 491 kts | 28° |
| 2026-05-05 18:42 | 43.15944 | 5.84012 | 38929 ft | 492 kts | 28° |
| 2026-05-05 18:42 | 43.21776 | 5.88946 | 38934 ft | 493 kts | 28° |
| 2026-05-05 18:43 | 43.27614 | 5.93898 | 38923 ft | 493 kts | 28° |
| 2026-05-05 18:43 | 43.33440 | 5.98849 | 38928 ft | 492 kts | 29° |
| 2026-05-05 18:44 | 43.39492 | 6.03136 | 38918 ft | 484 kts | 14° |
| 2026-05-05 18:44 | 43.45964 | 6.04914 | 38918 ft | 472 kts | 358° |
| 2026-05-05 18:45 | 43.52531 | 6.05448 | 38921 ft | 471 kts | 358° |
| 2026-05-05 18:45 | 43.59082 | 6.06018 | 38917 ft | 472 kts | 359° |
| 2026-05-05 18:46 | 43.65640 | 6.06661 | 38921 ft | 471 kts | 359° |
| 2026-05-05 18:46 | 43.72148 | 6.07309 | 38919 ft | 471 kts | 359° |
| 2026-05-05 18:47 | 43.78644 | 6.08895 | 38904 ft | 480 kts | 15° |
| 2026-05-05 18:47 | 43.84751 | 6.12775 | 38924 ft | 485 kts | 24° |
| 2026-05-05 18:48 | 43.90770 | 6.17038 | 38930 ft | 486 kts | 24° |
| 2026-05-05 18:48 | 43.96829 | 6.21254 | 38922 ft | 486 kts | 23° |
| 2026-05-05 18:49 | 44.02868 | 6.25395 | 38926 ft | 487 kts | 23° |
| 2026-05-05 18:49 | 44.08957 | 6.29568 | 38936 ft | 488 kts | 23° |
| 2026-05-05 18:50 | 44.15047 | 6.33759 | 38927 ft | 488 kts | 24° |
| 2026-05-05 18:50 | 44.21095 | 6.37931 | 38928 ft | 488 kts | 24° |
| 2026-05-05 18:51 | 44.27173 | 6.42140 | 38923 ft | 487 kts | 24° |
| 2026-05-05 18:51 | 44.33245 | 6.46358 | 38925 ft | 487 kts | 24° |
| 2026-05-05 18:52 | 44.39306 | 6.50579 | 38916 ft | 485 kts | 24° |
| 2026-05-05 18:52 | 44.45351 | 6.54796 | 38931 ft | 484 kts | 25° |
| 2026-05-05 18:53 | 44.51360 | 6.58992 | 38927 ft | 482 kts | 24° |
| 2026-05-05 18:53 | 44.57319 | 6.63135 | 38929 ft | 480 kts | 25° |
| 2026-05-05 18:54 | 44.63297 | 6.67298 | 38914 ft | 478 kts | 24° |
| 2026-05-05 18:54 | 44.69268 | 6.71472 | 38926 ft | 478 kts | 24° |
| 2026-05-05 18:55 | 44.75229 | 6.75647 | 38922 ft | 478 kts | 24° |
| 2026-05-05 18:55 | 44.78294 | 6.77405 | 38915 ft | 475 kts | 13° |
| 2026-05-05 18:55 | 44.81496 | 6.78447 | 38937 ft | 471 kts | 5° |
| 2026-05-05 18:56 | 44.87948 | 6.78681 | 38941 ft | 465 kts | 353° |
| 2026-05-05 18:56 | 44.94422 | 6.78144 | 38913 ft | 465 kts | 352° |
| 2026-05-05 18:57 | 45.00907 | 6.77635 | 38930 ft | 467 kts | 353° |
| 2026-05-05 18:57 | 45.07425 | 6.77194 | 38932 ft | 469 kts | 353° |
| 2026-05-05 18:58 | 45.13956 | 6.76771 | 38924 ft | 470 kts | 353° |
| 2026-05-05 18:58 | 45.19400 | 6.76411 | 38937 ft | 473 kts | 353° |
| 2026-05-05 18:59 | 45.27060 | 6.75902 | 38911 ft | 474 kts | 353° |
| 2026-05-05 18:59 | 45.33655 | 6.75463 | 38911 ft | 474 kts | 353° |
| 2026-05-05 19:00 | 45.39148 | 6.75114 | 38921 ft | 474 kts | 353° |
| 2026-05-05 19:00 | 45.45760 | 6.74697 | 38953 ft | 477 kts | 353° |
| 2026-05-05 19:01 | 45.52401 | 6.74257 | 38912 ft | 478 kts | 353° |
| 2026-05-05 19:01 | 45.59046 | 6.73802 | 38913 ft | 479 kts | 353° |
| 2026-05-05 19:02 | 45.65692 | 6.73346 | 38934 ft | 477 kts | 353° |
| 2026-05-05 19:02 | 45.72280 | 6.72896 | 38918 ft | 476 kts | 353° |
| 2026-05-05 19:03 | 45.78892 | 6.72445 | 38917 ft | 474 kts | 354° |
| 2026-05-05 19:03 | 45.85472 | 6.71992 | 38915 ft | 472 kts | 354° |
| 2026-05-05 19:04 | 45.92028 | 6.71537 | 38923 ft | 470 kts | 353° |
| 2026-05-05 19:04 | 45.98563 | 6.71081 | 38923 ft | 470 kts | 354° |
| 2026-05-05 19:05 | 46.05055 | 6.70628 | 38910 ft | 469 kts | 354° |
| 2026-05-05 19:05 | 46.11575 | 6.70104 | 38914 ft | 467 kts | 349° |
| 2026-05-05 19:06 | 46.14791 | 6.69340 | 37951 ft | 481 kts | 343° |
| 2026-05-05 19:06 | 46.18055 | 6.67943 | 36913 ft | 487 kts | 338° |
| 2026-05-05 19:06 | 46.21214 | 6.66379 | 36790 ft | 471 kts | 335° |
| 2026-05-05 19:06 | 46.24235 | 6.64783 | 36783 ft | 454 kts | 335° |
| 2026-05-05 19:07 | 46.30114 | 6.61691 | 36831 ft | 452 kts | 336° |
| 2026-05-05 19:07 | 46.36085 | 6.58676 | 36978 ft | 461 kts | 337° |
| 2026-05-05 19:08 | 46.39137 | 6.57171 | 37095 ft | 464 kts | 337° |
| 2026-05-05 19:08 | 46.42200 | 6.55672 | 37294 ft | 465 kts | 338° |
| 2026-05-05 19:08 | 46.45269 | 6.54174 | 37587 ft | 464 kts | 338° |
| 2026-05-05 19:08 | 46.48321 | 6.52683 | 37878 ft | 462 kts | 338° |
| 2026-05-05 19:09 | 46.51364 | 6.51193 | 38130 ft | 462 kts | 338° |
| 2026-05-05 19:09 | 46.54415 | 6.49695 | 38326 ft | 462 kts | 338° |
| 2026-05-05 19:09 | 46.57458 | 6.48198 | 38547 ft | 462 kts | 338° |
| 2026-05-05 19:09 | 46.60499 | 6.46699 | 38757 ft | 461 kts | 338° |
| 2026-05-05 19:10 | 46.63531 | 6.45202 | 38885 ft | 461 kts | 338° |
| 2026-05-05 19:10 | 46.66580 | 6.43695 | 38881 ft | 464 kts | 338° |
| 2026-05-05 19:10 | 46.72691 | 6.40669 | 38889 ft | 462 kts | 338° |
| 2026-05-05 19:11 | 46.78731 | 6.37674 | 38895 ft | 460 kts | 338° |
| 2026-05-05 19:11 | 46.84796 | 6.34656 | 38887 ft | 459 kts | 338° |
| 2026-05-05 19:12 | 46.90832 | 6.31647 | 38889 ft | 457 kts | 338° |
| 2026-05-05 19:12 | 46.96851 | 6.28639 | 38889 ft | 457 kts | 338° |
| 2026-05-05 19:13 | 47.02870 | 6.25623 | 38894 ft | 457 kts | 338° |
| 2026-05-05 19:13 | 47.08784 | 6.22344 | 38878 ft | 456 kts | 332° |
| 2026-05-05 19:14 | 47.14469 | 6.18183 | 38896 ft | 456 kts | 330° |
| 2026-05-05 19:14 | 47.20124 | 6.13985 | 38888 ft | 459 kts | 330° |
| 2026-05-05 19:15 | 47.25869 | 6.09827 | 38880 ft | 461 kts | 331° |
| 2026-05-05 19:15 | 47.31659 | 6.05683 | 38871 ft | 464 kts | 334° |
| 2026-05-05 19:16 | 47.34739 | 6.04136 | 38649 ft | 470 kts | 345° |
| 2026-05-05 19:16 | 47.37963 | 6.03334 | 38413 ft | 470 kts | 353° |
| 2026-05-05 19:16 | 47.41218 | 6.03228 | 38135 ft | 467 kts | 359° |
| 2026-05-05 19:16 | 47.44461 | 6.03345 | 37908 ft | 464 kts | 0° |
| 2026-05-05 19:17 | 47.50914 | 6.03594 | 37872 ft | 467 kts | 359° |
| 2026-05-05 19:17 | 47.57426 | 6.03764 | 37855 ft | 469 kts | 359° |
| 2026-05-05 19:18 | 47.63936 | 6.03895 | 37847 ft | 468 kts | 359° |
| 2026-05-05 19:18 | 47.70408 | 6.04026 | 37828 ft | 453 kts | 359° |
| 2026-05-05 19:19 | 47.73517 | 6.04093 | 37832 ft | 438 kts | 359° |
| 2026-05-05 19:19 | 47.76520 | 6.04167 | 37825 ft | 425 kts | 359° |
| 2026-05-05 19:19 | 47.82384 | 6.04349 | 37268 ft | 426 kts | 359° |
| 2026-05-05 19:20 | 47.85366 | 6.04444 | 36392 ft | 435 kts | 359° |
| 2026-05-05 19:20 | 47.88466 | 6.04557 | 35400 ft | 449 kts | 2° |
| 2026-05-05 19:20 | 47.91543 | 6.05222 | 34822 ft | 452 kts | 14° |
| 2026-05-05 19:20 | 47.94565 | 6.06523 | 34539 ft | 446 kts | 17° |
| 2026-05-05 19:21 | 47.97483 | 6.07880 | 34275 ft | 440 kts | 17° |
| 2026-05-05 19:21 | 48.00405 | 6.09257 | 33933 ft | 436 kts | 17° |
| 2026-05-05 19:21 | 48.03309 | 6.10615 | 33496 ft | 434 kts | 17° |
| 2026-05-05 19:21 | 48.06191 | 6.11943 | 33029 ft | 431 kts | 17° |
| 2026-05-05 19:22 | 48.09048 | 6.13244 | 32687 ft | 427 kts | 17° |
| 2026-05-05 19:22 | 48.11858 | 6.14515 | 32331 ft | 423 kts | 17° |
| 2026-05-05 19:22 | 48.14679 | 6.15787 | 31922 ft | 420 kts | 17° |
| 2026-05-05 19:22 | 48.17435 | 6.17028 | 31509 ft | 418 kts | 17° |
| 2026-05-05 19:23 | 48.20217 | 6.18282 | 31123 ft | 416 kts | 17° |
| 2026-05-05 19:23 | 48.22984 | 6.19531 | 30745 ft | 413 kts | 17° |
| 2026-05-05 19:23 | 48.25730 | 6.20772 | 30376 ft | 411 kts | 17° |
| 2026-05-05 19:23 | 48.28468 | 6.22011 | 30050 ft | 407 kts | 18° |
| 2026-05-05 19:24 | 48.31159 | 6.23230 | 29792 ft | 401 kts | 18° |
| 2026-05-05 19:24 | 48.33819 | 6.24437 | 29353 ft | 399 kts | 18° |
| 2026-05-05 19:24 | 48.36476 | 6.25644 | 28892 ft | 397 kts | 18° |
| 2026-05-05 19:24 | 48.39082 | 6.26829 | 28445 ft | 395 kts | 18° |
| 2026-05-05 19:25 | 48.41723 | 6.28032 | 28021 ft | 393 kts | 18° |
| 2026-05-05 19:25 | 48.44336 | 6.29222 | 27613 ft | 390 kts | 18° |
| 2026-05-05 19:25 | 48.46900 | 6.30392 | 27213 ft | 388 kts | 18° |
| 2026-05-05 19:25 | 48.49484 | 6.31572 | 26821 ft | 385 kts | 18° |
| 2026-05-05 19:26 | 48.52046 | 6.32743 | 26454 ft | 382 kts | 18° |
| 2026-05-05 19:26 | 48.54583 | 6.33904 | 26073 ft | 380 kts | 18° |
| 2026-05-05 19:26 | 48.57115 | 6.35064 | 25675 ft | 379 kts | 18° |
| 2026-05-05 19:26 | 48.59637 | 6.36221 | 25292 ft | 377 kts | 18° |
| 2026-05-05 19:27 | 48.62105 | 6.37354 | 24926 ft | 375 kts | 18° |
| 2026-05-05 19:27 | 48.64604 | 6.38502 | 24560 ft | 373 kts | 18° |
| 2026-05-05 19:27 | 48.67090 | 6.39629 | 24199 ft | 372 kts | 17° |
| 2026-05-05 19:27 | 48.69582 | 6.40695 | 23841 ft | 370 kts | 17° |
| 2026-05-05 19:28 | 48.72028 | 6.41715 | 23501 ft | 368 kts | 17° |
| 2026-05-05 19:28 | 48.74504 | 6.42744 | 23115 ft | 366 kts | 16° |
| 2026-05-05 19:28 | 48.76967 | 6.43772 | 22734 ft | 364 kts | 16° |
| 2026-05-05 19:28 | 48.79408 | 6.44795 | 22361 ft | 362 kts | 16° |
| 2026-05-05 19:29 | 48.81805 | 6.45805 | 21996 ft | 359 kts | 16° |
| 2026-05-05 19:29 | 48.84211 | 6.46822 | 21629 ft | 357 kts | 16° |
| 2026-05-05 19:29 | 48.86602 | 6.47835 | 21265 ft | 355 kts | 16° |
| 2026-05-05 19:29 | 48.88949 | 6.48830 | 20912 ft | 353 kts | 16° |
| 2026-05-05 19:30 | 48.91332 | 6.49841 | 20565 ft | 351 kts | 15° |
| 2026-05-05 19:30 | 48.93665 | 6.50833 | 20444 ft | 343 kts | 15° |
| 2026-05-05 19:30 | 48.95901 | 6.51960 | 20254 ft | 338 kts | 28° |
| 2026-05-05 19:30 | 48.97954 | 6.53759 | 19803 ft | 343 kts | 25° |
| 2026-05-05 19:31 | 49.00167 | 6.54969 | 19415 ft | 343 kts | 14° |
| 2026-05-05 19:31 | 49.02489 | 6.55831 | 19058 ft | 342 kts | 12° |
| 2026-05-05 19:31 | 49.04808 | 6.56627 | 18725 ft | 340 kts | 8° |
| 2026-05-05 19:31 | 49.07155 | 6.56604 | 18375 ft | 336 kts | 345° |
| 2026-05-05 19:32 | 49.09270 | 6.55229 | 18064 ft | 329 kts | 323° |
| 2026-05-05 19:32 | 49.11046 | 6.53063 | 17743 ft | 324 kts | 315° |
| 2026-05-05 19:32 | 49.12663 | 6.50720 | 17376 ft | 322 kts | 313° |
| 2026-05-05 19:32 | 49.14241 | 6.48298 | 17008 ft | 320 kts | 311° |
| 2026-05-05 19:33 | 49.15771 | 6.45818 | 16650 ft | 319 kts | 310° |
| 2026-05-05 19:33 | 49.17252 | 6.43383 | 16405 ft | 314 kts | 310° |
| 2026-05-05 19:33 | 49.18737 | 6.40934 | 16287 ft | 306 kts | 310° |
| 2026-05-05 19:33 | 49.20155 | 6.38595 | 16024 ft | 303 kts | 310° |
| 2026-05-05 19:34 | 49.21585 | 6.36234 | 15687 ft | 302 kts | 310° |
| 2026-05-05 19:34 | 49.23015 | 6.33876 | 15388 ft | 301 kts | 310° |
| 2026-05-05 19:34 | 49.24441 | 6.31527 | 15095 ft | 299 kts | 310° |
| 2026-05-05 19:35 | 49.27248 | 6.26911 | 14522 ft | 295 kts | 310° |
| 2026-05-05 19:35 | 49.28653 | 6.24606 | 14228 ft | 294 kts | 310° |
| 2026-05-05 19:35 | 49.30051 | 6.22315 | 13946 ft | 293 kts | 310° |
| 2026-05-05 19:35 | 49.31442 | 6.20041 | 13651 ft | 292 kts | 310° |
| 2026-05-05 19:36 | 49.32814 | 6.17802 | 13348 ft | 290 kts | 310° |
| 2026-05-05 19:36 | 49.34186 | 6.15568 | 12908 ft | 286 kts | 310° |
| 2026-05-05 19:36 | 49.35557 | 6.13338 | 12360 ft | 286 kts | 310° |
| 2026-05-05 19:36 | 49.36905 | 6.11146 | 11863 ft | 285 kts | 310° |
| 2026-05-05 19:37 | 49.38269 | 6.08921 | 11365 ft | 284 kts | 310° |
| 2026-05-05 19:37 | 49.39624 | 6.06711 | 10897 ft | 282 kts | 310° |
| 2026-05-05 19:37 | 49.40969 | 6.04517 | 10403 ft | 281 kts | 310° |
| 2026-05-05 19:37 | 49.42287 | 6.02367 | 10063 ft | 276 kts | 310° |
| 2026-05-05 19:38 | 49.43583 | 6.00261 | 9834 ft | 267 kts | 310° |
| 2026-05-05 19:38 | 49.44846 | 5.98218 | 9536 ft | 260 kts | 310° |
| 2026-05-05 19:38 | 49.46076 | 5.96232 | 9271 ft | 252 kts | 310° |
| 2026-05-05 19:38 | 49.47270 | 5.94314 | 8981 ft | 245 kts | 310° |
| 2026-05-05 19:39 | 49.48444 | 5.92434 | 8678 ft | 241 kts | 310° |
| 2026-05-05 19:39 | 49.49583 | 5.90610 | 8351 ft | 238 kts | 310° |
| 2026-05-05 19:39 | 49.50733 | 5.88766 | 7951 ft | 238 kts | 310° |
| 2026-05-05 19:39 | 49.51880 | 5.86921 | 7543 ft | 239 kts | 310° |
| 2026-05-05 19:40 | 49.53041 | 5.85048 | 7088 ft | 242 kts | 310° |
| 2026-05-05 19:40 | 49.54197 | 5.83176 | 6619 ft | 246 kts | 309° |
| 2026-05-05 19:40 | 49.55081 | 5.80941 | 6063 ft | 245 kts | 281° |
| 2026-05-05 19:40 | 49.55244 | 5.78358 | 5494 ft | 244 kts | 260° |
| 2026-05-05 19:41 | 49.54685 | 5.75940 | 5163 ft | 234 kts | 231° |
| 2026-05-05 19:41 | 49.53445 | 5.74456 | 5066 ft | 228 kts | 201° |
| 2026-05-05 19:41 | 49.51839 | 5.74217 | 4822 ft | 241 kts | 170° |
| 2026-05-05 19:41 | 49.50313 | 5.75314 | 4592 ft | 254 kts | 143° |
| 2026-05-05 19:42 | 49.49232 | 5.77506 | 4332 ft | 262 kts | 115° |
| 2026-05-05 19:42 | 49.48965 | 5.80274 | 4071 ft | 265 kts | 85° |
| 2026-05-05 19:42 | 49.49472 | 5.83004 | 3827 ft | 264 kts | 68° |
| 2026-05-05 19:42 | 49.50231 | 5.85559 | 3581 ft | 262 kts | 65° |
| 2026-05-05 19:43 | 49.51000 | 5.88062 | 3357 ft | 259 kts | 66° |
| 2026-05-05 19:43 | 49.51738 | 5.90521 | 3353 ft | 247 kts | 66° |
| 2026-05-05 19:43 | 49.52430 | 5.92880 | 3329 ft | 236 kts | 67° |
| 2026-05-05 19:43 | 49.53116 | 5.95116 | 3303 ft | 226 kts | 64° |
| 2026-05-05 19:44 | 49.53854 | 5.97236 | 3302 ft | 224 kts | 62° |
| 2026-05-05 19:44 | 49.54609 | 5.99302 | 3302 ft | 224 kts | 61° |
| 2026-05-05 19:44 | 49.55375 | 6.01383 | 3310 ft | 224 kts | 61° |
| 2026-05-05 19:44 | 49.56150 | 6.03493 | 3318 ft | 227 kts | 61° |
| 2026-05-05 19:45 | 49.56926 | 6.05603 | 3138 ft | 226 kts | 61° |
| 2026-05-05 19:45 | 49.57695 | 6.07697 | 2849 ft | 221 kts | 61° |
| 2026-05-05 19:45 | 49.58431 | 6.09695 | 2558 ft | 212 kts | 62° |
| 2026-05-05 19:45 | 49.59134 | 6.11607 | 2293 ft | 197 kts | 62° |
| 2026-05-05 19:46 | 49.59791 | 6.13392 | 2014 ft | 185 kts | 62° |
| 2026-05-05 19:46 | 49.60394 | 6.15031 | 1767 ft | 169 kts | 61° |
| 2026-05-05 19:46 | 49.60944 | 6.16539 | 1520 ft | 156 kts | 62° |
| 2026-05-05 19:46 | 49.61474 | 6.17999 | 1308 ft | 156 kts | 60° |
| 2026-05-05 19:47 | 49.61829 | 6.18960 | 1183 ft | 154 kts | 60° |
| 2026-05-05 19:47 | 49.62310 | 6.20250 | 1222 ft | 119 kts | 60° |
| 2026-05-05 19:47 | 49.62647 | 6.21158 | 1233 ft | 76 kts | 60° |
| 2026-05-05 19:47 | 49.62888 | 6.21808 | 1214 ft | 44 kts | 60° |
| 2026-05-05 19:48 | 49.62985 | 6.22070 | 1213 ft | 33 kts | 60° |
| 2026-05-05 19:48 | 49.63100 | 6.22092 | 1218 ft | 15 kts | 330° |
| 2026-05-05 19:48 | 49.63171 | 6.22012 | 1226 ft | 12 kts | 301° |
| 2026-05-05 19:48 | 49.63176 | 6.21922 | 1227 ft | 4 kts | 312° |
| 2026-05-05 19:49 | 49.63199 | 6.21897 | 1227 ft | 4 kts | 327° |
| 2026-05-05 19:49 | 49.63225 | 6.21873 | 1227 ft | 4 kts | 330° |
| 2026-05-05 19:49 | 49.63251 | 6.21851 | 1229 ft | 4 kts | 330° |
| 2026-05-05 19:49 | 49.63276 | 6.21829 | 1229 ft | 4 kts | 331° |
| 2026-05-05 19:50 | 49.63301 | 6.21806 | 1229 ft | 5 kts | 321° |
| 2026-05-05 19:50 | 49.63303 | 6.21739 | 1229 ft | 8 kts | 244° |
| 2026-05-05 19:50 | 49.63276 | 6.21666 | 1229 ft | 8 kts | 240° |
| 2026-05-05 19:50 | 49.63286 | 6.21598 | 1229 ft | 5 kts | 323° |
| 2026-05-05 19:51 | 49.63317 | 6.21570 | 1229 ft | 5 kts | 329° |
| 2026-05-05 19:51 | 49.63330 | 6.21558 | 1229 ft | 2 kts | 330° |
| 2026-05-05 19:51 | 49.63332 | 6.21557 | 1229 ft | 0 kts | 330° |